Time;durP1;ratioP1;P1;durP2;ratioP2;P2;SDS_P1;SDS_P2;PMS_P1;PMS_P2;Temp;Humidity;BMP_temperature;BMP_pressure;BME280_temperature;BME280_humidity;BME280_pressure;Samples;Min_cycle;Max_cycle;Signal;HPM_P1;HPM_P2
2023/07/12 00:01:26;;;;;;;7.35;3.40;;;22.00;99.90;;;-144.05;62.97;56884.94;5058027;28;20020;-82
2023/07/12 00:03:52;;;;;;;7.95;3.38;;;22.00;99.90;;;-144.05;63.16;56895.56;5057859;28;20028;-82
2023/07/12 00:06:36;;;;;;;11.55;4.47;;;21.90;99.90;;;-144.05;63.67;56882.81;5058381;28;20028;-82
2023/07/12 00:09:12;;;;;;;6.88;3.72;;;21.80;99.90;;;-144.05;63.85;56884.94;5058041;28;20067;-84
2023/07/12 00:11:38;;;;;;;6.13;3.50;;;21.80;99.90;;;-144.05;64.21;56867.94;5059741;28;20029;-82
2023/07/12 00:14:04;;;;;;;9.68;3.83;;;21.70;99.90;;;-144.05;64.42;56884.94;5038716;28;20025;-83
2023/07/12 00:16:37;;;;;;;7.60;3.70;;;21.70;99.90;;;-144.05;64.47;56887.06;5058571;28;20029;-83
2023/07/12 00:19:05;;;;;;;4.35;2.97;;;21.60;99.90;;;-144.05;64.76;56863.69;5058806;28;20449;-84
2023/07/12 00:21:32;;;;;;;4.40;3.10;;;21.60;99.90;;;-144.05;64.97;56861.56;5057745;28;20392;-84
2023/07/12 00:24:01;;;;;;;5.22;2.78;;;21.50;99.90;;;-144.05;65.31;56857.34;5058117;28;20025;-82
2023/07/12 00:26:37;;;;;;;3.42;2.00;;;21.50;99.90;;;-144.05;65.10;56882.81;5057062;28;20024;-83
2023/07/12 00:29:08;;;;;;;3.05;1.83;;;21.40;99.90;;;-144.05;65.72;56891.31;5059555;28;20025;-83
2023/07/12 00:31:36;;;;;;;4.22;1.70;;;21.40;99.90;;;-144.05;65.13;56891.31;5041663;28;20331;-84
2023/07/12 00:34:02;;;;;;;5.00;2.08;;;21.20;99.90;;;-144.05;64.99;56882.81;5059681;28;20044;-83
2023/07/12 00:36:32;;;;;;;5.13;1.88;;;21.10;99.90;;;-144.05;65.06;56878.56;5060834;28;20518;-83
2023/07/12 00:39:02;;;;;;;3.08;2.17;;;20.90;99.90;;;-144.05;65.82;56853.09;5061136;28;20547;-84
2023/07/12 00:42:15;;;;;;;3.65;1.98;;;20.80;99.90;;;-144.05;66.93;56865.81;5065068;28;20033;-84
2023/07/12 00:44:57;;;;;;;2.80;1.83;;;20.70;99.90;;;-144.05;67.69;56855.22;5060517;28;20029;-82
2023/07/12 00:47:24;;;;;;;4.10;2.05;;;20.50;99.90;;;-144.05;67.97;56857.34;5041795;28;20032;-82
2023/07/12 00:49:51;;;;;;;6.80;2.83;;;20.40;99.90;;;-144.05;69.53;56850.97;5059843;28;20021;-83
2023/07/12 00:52:21;;;;;;;2.97;2.00;;;20.30;99.90;;;-144.05;69.85;56857.34;5059479;28;20453;-81
2023/07/12 00:55:01;;;;;;;3.97;2.20;;;20.30;99.90;;;-144.05;70.87;56870.06;5041761;28;20076;-82
2023/07/12 00:57:31;;;;;;;3.63;2.33;;;20.20;99.90;;;-144.05;71.83;56846.72;5059594;28;20357;-83
2023/07/12 01:00:10;;;;;;;5.22;2.70;;;20.20;99.90;;;-144.05;72.31;56861.56;5057676;28;20029;-85
2023/07/12 01:02:44;;;;;;;5.90;2.80;;;20.20;99.90;;;-144.05;73.11;56842.47;5058782;28;20089;-85
2023/07/12 01:05:14;;;;;;;4.13;2.67;;;20.10;99.90;;;-144.05;73.29;56861.56;5041499;28;20060;-84
2023/07/12 01:07:40;;;;;;;5.00;2.33;;;20.10;99.90;;;-144.05;73.53;56874.31;5042081;28;20100;-85
2023/07/12 01:10:08;;;;;;;6.82;3.30;;;20.10;99.90;;;-144.05;73.77;56855.22;5059356;28;20058;-84
2023/07/12 01:12:34;;;;;;;4.30;2.50;;;20.10;99.90;;;-144.05;74.42;56850.97;5063496;28;20028;-83
2023/07/12 01:15:10;;;;;;;4.95;2.10;;;20.10;99.90;;;-144.05;74.21;56840.34;5053412;28;20044;-83
2023/07/12 01:17:36;;;;;;;4.88;2.33;;;20.10;99.90;;;-144.05;74.40;56867.94;5058130;28;20021;-80
2023/07/12 01:20:04;;;;;;;3.30;2.25;;;20.10;99.90;;;-144.05;74.07;56846.72;5054087;28;20025;-82
2023/07/12 01:22:33;;;;;;;4.68;2.10;;;20.10;99.90;;;-144.05;74.25;56833.97;5055985;28;20426;-82
2023/07/12 01:24:58;;;;;;;5.38;2.20;;;20.10;99.90;;;-144.05;74.16;56855.22;5054392;28;20029;-82
2023/07/12 01:27:25;;;;;;;4.47;2.10;;;20.10;99.90;;;-144.05;74.05;56884.94;5038306;28;20032;-83
2023/07/12 01:29:54;;;;;;;3.50;1.90;;;20.20;99.90;;;-144.05;73.72;56891.31;5054498;28;20029;-83
2023/07/12 01:32:21;;;;;;;4.75;2.00;;;20.20;99.90;;;-144.05;73.40;56884.94;5055938;28;20118;-83
2023/07/12 01:34:47;;;;;;;3.88;1.70;;;20.30;99.90;;;-144.05;73.75;56867.94;5037587;28;20120;-83
2023/07/12 01:37:15;;;;;;;4.43;2.00;;;20.30;99.90;;;-144.05;75.30;56865.81;5037672;28;20032;-83
2023/07/12 01:39:41;;;;;;;3.67;1.98;;;20.20;99.90;;;-144.05;74.71;56855.22;5055848;28;20067;-83
2023/07/12 01:42:07;;;;;;;2.80;1.75;;;20.10;99.90;;;-144.05;75.47;56859.47;5054013;28;20036;-82
2023/07/12 01:44:33;;;;;;;6.18;1.80;;;20.10;99.90;;;-144.05;75.60;56882.81;5055743;28;20032;-83
2023/07/12 01:46:59;;;;;;;1.48;1.30;;;20.00;99.90;;;-144.05;75.30;56838.22;5037879;28;20029;-82
2023/07/12 01:49:25;;;;;;;2.75;1.60;;;19.90;99.90;;;-144.05;75.27;56861.56;5054932;28;20044;-84
2023/07/12 01:51:51;;;;;;;2.63;1.80;;;19.90;99.90;;;-144.05;76.32;56870.06;5054804;28;20502;-83
2023/07/12 01:54:17;;;;;;;3.70;1.77;;;19.80;99.90;;;-144.05;76.58;56842.47;5054973;28;20029;-83
2023/07/12 01:56:43;;;;;;;2.33;1.70;;;19.70;99.90;;;-144.05;76.57;56844.59;5053625;28;20094;-83
2023/07/12 01:59:08;;;;;;;3.45;1.90;;;19.80;99.90;;;-144.05;76.65;56863.69;5055144;28;20029;-83
2023/07/12 02:01:34;;;;;;;4.70;1.90;;;19.70;99.90;;;-144.05;78.00;56853.09;5036477;28;20112;-83
2023/07/12 02:04:00;;;;;;;4.95;1.90;;;19.70;99.90;;;-144.05;78.10;56865.81;5054204;28;20029;-83
2023/07/12 02:06:26;;;;;;;3.80;2.00;;;19.70;99.90;;;-144.05;77.90;56867.94;5037198;28;20032;-83
2023/07/12 02:08:52;;;;;;;3.33;1.75;;;19.60;99.90;;;-144.05;77.91;56861.56;5054081;28;20029;-83
2023/07/12 02:11:18;;;;;;;2.97;1.45;;;19.50;99.90;;;-144.05;77.84;56838.22;5038611;28;20044;-82
2023/07/12 02:13:44;;;;;;;4.78;1.67;;;19.50;99.90;;;-144.05;77.51;56844.59;5056375;28;20037;-83
2023/07/12 02:16:10;;;;;;;3.22;1.92;;;19.40;99.90;;;-144.05;78.28;56853.09;5056826;28;20044;-83
2023/07/12 02:18:35;;;;;;;3.88;1.70;;;19.30;99.90;;;-144.05;77.89;56878.56;5038933;28;20020;-82
2023/07/12 02:21:01;;;;;;;2.55;1.80;;;19.30;99.90;;;-144.05;79.61;56850.97;5039804;28;20119;-85
2023/07/12 02:23:27;;;;;;;2.28;1.52;;;19.20;99.90;;;-144.05;79.77;56848.84;5037918;28;20029;-82
2023/07/12 02:25:53;;;;;;;1.98;1.55;;;19.30;99.90;;;-144.05;79.52;56878.56;5056474;28;20014;-84
2023/07/12 02:28:19;;;;;;;2.05;1.35;;;19.10;99.90;;;-144.05;79.60;56853.09;5039165;28;20755;-83
2023/07/12 02:30:45;;;;;;;3.15;1.60;;;19.10;99.90;;;-144.05;80.19;56857.34;5057006;28;20404;-81
2023/07/12 02:33:11;;;;;;;2.65;1.70;;;19.10;99.90;;;-144.05;80.41;56859.47;5057530;28;20499;-82
2023/07/12 02:35:41;;;;;;;3.28;1.67;;;19.00;99.90;;;-144.05;80.55;56857.34;5057644;28;20033;-85
2023/07/12 02:38:08;;;;;;;3.30;1.73;;;19.00;99.90;;;-144.05;79.84;56850.97;5063731;28;20025;-84
2023/07/12 02:40:34;;;;;;;3.67;2.15;;;19.00;99.90;;;-144.05;80.30;56844.59;5068047;28;20115;-81
2023/07/12 02:43:00;;;;;;;3.20;1.60;;;19.00;99.90;;;-144.05;80.22;56850.97;5046465;28;20799;-83
2023/07/12 02:45:26;;;;;;;5.65;2.00;;;19.00;99.90;;;-144.05;80.24;56855.22;5061339;28;20108;-84
2023/07/12 02:47:52;;;;;;;2.92;1.75;;;19.10;99.90;;;-144.05;80.63;56842.47;5061577;28;20107;-84
2023/07/12 02:50:18;;;;;;;3.95;2.00;;;19.10;99.90;;;-144.05;80.87;56859.47;5062594;28;20051;-85
2023/07/12 02:52:44;;;;;;;3.85;2.05;;;19.00;99.90;;;-144.05;80.79;56855.22;5044636;28;20035;-83
2023/07/12 02:55:10;;;;;;;3.03;1.75;;;19.00;99.90;;;-144.05;81.37;56836.09;5044916;28;20033;-83
2023/07/12 02:57:36;;;;;;;3.75;1.80;;;19.00;99.90;;;-144.05;81.62;56853.09;5044607;28;20032;-82
2023/07/12 03:00:05;;;;;;;4.32;1.73;;;19.00;99.90;;;-144.05;81.60;56865.81;5039202;28;20117;-82
2023/07/12 03:02:31;;;;;;;3.78;2.50;;;19.10;99.90;;;-144.05;81.97;56844.59;5056078;28;20112;-83
2023/07/12 03:04:56;;;;;;;4.88;2.42;;;19.00;99.90;;;-144.05;82.69;56840.34;5056000;28;20037;-82
2023/07/12 03:07:22;;;;;;;6.05;2.17;;;19.00;99.90;;;-144.05;82.21;56833.97;5057756;28;20550;-83
2023/07/12 03:09:48;;;;;;;4.85;2.60;;;19.00;99.90;;;-144.05;81.88;56861.56;5056213;28;20112;-83
2023/07/12 03:12:14;;;;;;;4.10;1.90;;;19.00;99.90;;;-144.05;81.70;56861.56;5039989;28;20060;-83
2023/07/12 03:14:40;;;;;;;4.25;2.30;;;19.00;99.90;;;-144.05;82.03;56836.09;5039977;28;20495;-81
2023/07/12 03:17:06;;;;;;;6.50;2.60;;;19.10;99.90;;;-144.05;81.50;56857.34;5058380;28;20032;-81
2023/07/12 03:19:35;;;;;;;3.78;2.42;;;19.10;99.90;;;-144.05;80.47;56861.56;5057944;28;20414;-83
2023/07/12 03:22:02;;;;;;;5.55;2.47;;;19.00;99.90;;;-144.05;78.77;56865.81;5055937;28;20073;-84
2023/07/12 03:24:28;;;;;;;4.70;2.35;;;19.00;99.90;;;-144.05;78.02;56842.47;5057771;28;20021;-84
2023/07/12 03:26:55;;;;;;;6.53;2.30;;;18.90;99.90;;;-144.05;78.15;56872.19;5058108;28;20032;-83
2023/07/12 03:29:21;;;;;;;7.13;2.47;;;18.90;99.90;;;-144.05;78.21;56882.81;5039869;28;20029;-85
2023/07/12 03:31:46;;;;;;;5.28;2.40;;;18.60;99.90;;;-144.05;77.13;56831.84;5056142;28;20052;-84
2023/07/12 03:34:12;;;;;;;6.13;2.75;;;18.50;99.90;;;-144.05;77.59;56870.06;5058134;28;20090;-83
2023/07/12 03:36:39;;;;;;;8.60;2.53;;;18.50;99.90;;;-144.05;77.86;56844.59;5057726;28;20462;-84
2023/07/12 03:39:05;;;;;;;8.27;2.17;;;18.30;99.90;;;-144.05;77.73;56848.84;5039254;28;20048;-85
2023/07/12 03:41:31;;;;;;;12.35;3.65;;;18.20;99.90;;;-144.05;77.46;56874.31;5039707;28;20116;-84
2023/07/12 03:43:57;;;;;;;9.52;3.28;;;18.20;99.90;;;-144.05;78.02;56838.22;5058631;28;20511;-83
2023/07/12 03:46:23;;;;;;;12.48;2.60;;;18.10;99.90;;;-144.05;77.55;56872.19;5039859;28;20036;-85
2023/07/12 03:48:49;;;;;;;6.22;2.53;;;18.00;99.90;;;-144.05;77.97;56857.34;5040302;28;20115;-84
2023/07/12 03:51:17;;;;;;;7.18;2.20;;;18.00;99.90;;;-144.05;76.21;56840.34;5038846;28;20500;-84
2023/07/12 03:53:44;;;;;;;12.60;2.90;;;17.80;99.90;;;-144.05;78.02;56853.09;5039504;28;20035;-85
2023/07/12 03:56:10;;;;;;;8.35;2.25;;;17.70;99.90;;;-144.05;78.63;56850.97;5039628;28;20029;-83
2023/07/12 03:58:40;;;;;;;9.32;2.75;;;17.70;99.90;;;-144.05;79.01;56833.97;5057304;28;20029;-85
2023/07/12 04:01:11;;;;;;;8.10;2.20;;;17.60;99.90;;;-144.05;79.87;56840.34;5039742;28;20220;-87
2023/07/12 04:03:38;;;;;;;4.20;1.92;;;17.60;99.90;;;-144.05;79.46;56855.22;5041818;28;20041;-85
2023/07/12 04:06:06;;;;;;;10.80;2.10;;;17.50;99.90;;;-144.05;80.42;56840.34;5059689;28;20481;-85
2023/07/12 04:08:34;;;;;;;5.00;2.28;;;17.50;99.90;;;-144.05;80.46;56840.34;5041917;28;20064;-85
2023/07/12 04:11:02;;;;;;;4.13;2.00;;;17.40;99.90;;;-144.05;80.21;56863.69;5059890;28;20534;-85
2023/07/12 04:13:28;;;;;;;5.95;2.15;;;17.40;99.90;;;-144.05;80.50;56853.09;5041672;28;20039;-84
2023/07/12 04:16:01;;;;;;;3.03;1.80;;;17.40;99.90;;;-144.05;80.79;56859.47;5059615;28;20037;-87
2023/07/12 04:18:28;;;;;;;5.45;2.22;;;17.40;99.90;;;-144.05;81.09;56846.72;5043413;28;20120;-82
2023/07/12 04:21:02;;;;;;;7.47;2.80;;;17.30;99.90;;;-144.05;82.22;56821.22;5043945;28;20033;-85
2023/07/12 04:23:28;;;;;;;7.07;3.08;;;17.30;99.90;;;-144.05;82.59;56848.84;5062676;28;20025;-86
2023/07/12 04:26:02;;;;;;;4.82;2.70;;;17.30;99.90;;;-144.05;83.98;56865.81;5043744;28;20023;-86
2023/07/12 04:28:31;;;;;;;7.85;3.88;;;17.40;99.90;;;-144.05;85.02;56848.84;5064319;28;20036;-85
2023/07/12 04:31:05;;;;;;;8.27;3.58;;;17.40;99.90;;;-144.05;84.67;56870.06;5060946;28;20024;-84
2023/07/12 04:33:31;;;;;;;6.78;2.60;;;17.40;99.90;;;-144.05;85.17;56853.09;5060319;28;20488;-86
2023/07/12 04:35:57;;;;;;;5.78;2.85;;;17.40;99.90;;;-144.05;84.88;56840.34;5061498;28;20159;-86
2023/07/12 04:38:23;;;;;;;6.18;2.33;;;17.40;99.90;;;-144.05;85.01;56833.97;5074846;28;20049;-84
2023/07/12 04:40:56;;;;;;;6.30;2.38;;;17.40;99.90;;;-144.05;85.27;56848.84;5069052;28;20465;-83
2023/07/12 04:43:23;;;;;;;4.28;2.55;;;17.40;99.90;;;-144.05;85.41;56865.81;5043360;28;20029;-84
2023/07/12 04:45:49;;;;;;;5.30;2.72;;;17.30;99.90;;;-144.05;85.28;56842.47;5062058;28;20031;-85
2023/07/12 04:48:15;;;;;;;6.20;2.85;;;17.40;99.90;;;-144.05;86.04;56853.09;5061922;28;20025;-85
2023/07/12 04:50:42;;;;;;;8.45;2.75;;;17.40;99.90;;;-144.05;85.66;56848.84;5059449;28;20025;-84
2023/07/12 04:53:08;;;;;;;4.63;1.98;;;17.40;99.90;;;-144.05;86.00;56859.47;5040161;28;20029;-83
2023/07/12 04:55:34;;;;;;;3.45;1.90;;;17.50;99.90;;;-144.05;84.52;56850.97;5057047;28;20029;-85
2023/07/12 04:58:00;;;;;;;3.05;1.95;;;17.50;99.90;;;-144.05;84.04;56829.72;5058478;28;20040;-85
2023/07/12 05:00:26;;;;;;;4.38;2.13;;;17.60;99.90;;;-144.05;83.89;56850.97;5057850;28;20020;-83
2023/07/12 05:02:53;;;;;;;3.60;1.88;;;17.70;99.90;;;-144.05;82.17;56842.47;5060053;28;20100;-86
2023/07/12 05:05:21;;;;;;;6.85;2.08;;;17.70;99.90;;;-144.05;81.56;56859.47;5058441;28;20029;-85
2023/07/12 05:07:50;;;;;;;4.30;1.67;;;17.70;99.90;;;-144.05;81.42;56855.22;5056809;28;20024;-83
2023/07/12 05:10:17;;;;;;;4.07;1.70;;;17.70;99.90;;;-144.05;82.19;56833.97;5058383;28;20420;-84
2023/07/12 05:12:43;;;;;;;4.78;1.55;;;17.70;99.90;;;-144.05;81.37;56846.72;5060192;28;20035;-83
2023/07/12 05:15:13;;;;;;;4.20;1.83;;;17.70;99.90;;;-144.05;82.00;56846.72;5062091;28;20491;-84
2023/07/12 05:17:40;;;;;;;9.20;2.00;;;17.70;99.90;;;-144.05;81.97;56861.56;5059939;28;20089;-84
2023/07/12 05:20:10;;;;;;;3.65;1.50;;;17.70;99.90;;;-144.05;82.51;56840.34;5060362;28;20033;-85
2023/07/12 05:22:36;;;;;;;2.05;1.60;;;17.60;99.90;;;-144.05;81.70;56848.84;5062124;28;20060;-84
2023/07/12 05:25:03;;;;;;;5.43;2.00;;;17.60;99.90;;;-144.05;80.17;56874.31;5044128;28;20435;-83
2023/07/12 05:27:28;;;;;;;3.38;1.77;;;17.70;99.90;;;-144.05;78.71;56846.72;5061836;28;20051;-82
2023/07/12 05:29:54;;;;;;;3.08;1.60;;;17.90;99.90;;;-144.05;76.60;56848.84;5046105;28;20037;-85
2023/07/12 05:32:20;;;;;;;3.78;1.40;;;18.10;99.90;;;-144.05;75.30;56850.97;5046579;28;20315;-81
2023/07/12 05:34:47;;;;;;;2.80;1.30;;;18.40;99.90;;;-144.05;73.44;56857.34;5065320;28;20025;-84
2023/07/12 05:37:13;;;;;;;3.00;1.40;;;18.50;99.90;;;-144.05;73.61;56853.09;5064261;28;20036;-84
2023/07/12 05:39:40;;;;;;;2.55;1.33;;;18.60;99.90;;;-144.05;71.99;56833.97;5048340;28;20029;-82
2023/07/12 05:42:07;;;;;;;2.67;1.30;;;18.90;99.90;;;-144.05;69.98;56870.06;5049370;28;20040;-81
2023/07/12 05:44:32;;;;;;;3.83;1.38;;;19.00;99.90;;;-144.05;71.22;56844.59;5049475;28;20059;-84
2023/07/12 05:46:58;;;;;;;2.75;1.25;;;19.00;99.90;;;-144.05;71.34;56840.34;5048798;28;20029;-84
2023/07/12 05:49:24;;;;;;;3.05;1.13;;;18.80;99.90;;;-144.05;71.72;56867.94;5056935;28;20039;-83
2023/07/12 05:51:52;;;;;;;2.30;1.10;;;18.70;99.90;;;-144.05;71.33;56842.47;5085656;22;20037;-82
2023/07/12 05:54:17;;;;;;;2.38;1.10;;;18.70;99.90;;;-144.05;71.08;56865.81;5040043;28;20040;-78
2023/07/12 05:56:43;;;;;;;2.28;1.17;;;18.70;99.90;;;-144.05;71.22;56861.56;5058776;28;20025;-80
2023/07/12 05:59:10;;;;;;;2.97;1.13;;;18.70;99.90;;;-144.05;71.58;56863.69;5057658;28;20116;-80
2023/07/12 06:01:37;;;;;;;2.78;1.05;;;18.60;99.90;;;-144.05;71.25;56859.47;5037945;28;20056;-80
2023/07/12 06:04:03;;;;;;;1.42;1.08;;;18.70;99.90;;;-144.05;70.34;56859.47;5037381;28;20086;-78
2023/07/12 06:06:29;;;;;;;3.30;1.17;;;18.70;99.90;;;-144.05;69.94;56878.56;5036080;28;20033;-79
2023/07/12 06:08:55;;;;;;;2.30;1.30;;;18.70;99.90;;;-144.05;71.97;56863.69;5054513;28;20036;-80
2023/07/12 06:11:21;;;;;;;2.53;1.15;;;18.40;99.90;;;-144.05;72.84;56853.09;5054374;28;20040;-79
2023/07/12 06:13:46;;;;;;;3.03;1.05;;;18.40;99.90;;;-144.05;72.27;56872.19;5036394;28;20528;-80
2023/07/12 06:16:12;;;;;;;1.45;0.98;;;18.40;99.90;;;-144.05;72.27;56853.09;5054414;28;20029;-80
2023/07/12 06:18:38;;;;;;;1.50;1.05;;;18.30;99.90;;;-144.05;72.53;56850.97;5054041;28;20111;-79
2023/07/12 06:21:09;;;;;;;2.38;1.20;;;18.30;99.90;;;-144.05;72.61;56863.69;5036115;28;20017;-79
2023/07/12 06:23:36;;;;;;;1.33;0.93;;;18.30;99.90;;;-144.05;73.10;56863.69;5054492;28;20100;-79
2023/07/12 06:26:04;;;;;;;1.33;0.90;;;18.30;99.90;;;-144.05;72.73;56848.84;5053439;28;20021;-82
2023/07/12 06:28:30;;;;;;;1.77;1.20;;;18.20;99.90;;;-144.05;72.93;56848.84;5054319;28;20104;-78
2023/07/12 06:30:56;;;;;;;1.20;0.77;;;18.20;99.90;;;-144.05;73.31;56840.34;5054207;28;20052;-80
2023/07/12 06:33:22;;;;;;;3.85;1.13;;;18.10;99.90;;;-144.05;73.89;56853.09;5036476;28;20669;-81
2023/07/12 06:35:48;;;;;;;2.58;1.13;;;18.10;99.90;;;-144.05;73.15;56874.31;5055156;28;20037;-79
2023/07/12 06:38:14;;;;;;;2.92;0.90;;;18.10;99.90;;;-144.05;72.94;56870.06;5053575;28;20060;-79
2023/07/12 06:40:41;;;;;;;2.05;1.00;;;18.10;99.90;;;-144.05;72.78;56831.84;5038745;28;20029;-79
2023/07/12 06:43:07;;;;;;;2.28;1.17;;;18.20;99.90;;;-144.05;73.06;56848.84;5038736;28;20029;-80
2023/07/12 06:45:33;;;;;;;4.65;1.33;;;18.10;99.90;;;-144.05;73.22;56853.09;5037171;28;20064;-83
2023/07/12 06:47:59;;;;;;;2.47;1.17;;;18.10;99.90;;;-144.05;73.58;56867.94;5034693;28;20205;-80
2023/07/12 06:50:25;;;;;;;2.90;1.33;;;18.10;99.90;;;-144.05;73.59;56831.84;5034144;28;20035;-80
2023/07/12 06:52:51;;;;;;;4.15;1.20;;;18.10;99.90;;;-144.05;73.70;56874.31;5052721;28;20049;-81
2023/07/12 06:55:16;;;;;;;1.92;1.08;;;18.00;99.90;;;-144.05;74.00;56870.06;5052478;28;20546;-79
2023/07/12 06:57:42;;;;;;;3.05;1.33;;;18.10;99.90;;;-144.05;73.18;56855.22;5052881;28;20424;-80
2023/07/12 07:00:13;;;;;;;4.57;1.70;;;18.20;99.90;;;-144.05;73.06;56861.56;5034583;28;20053;-78
2023/07/12 07:02:39;;;;;;;2.78;1.67;;;18.30;99.90;;;-144.05;72.54;56857.34;5052699;28;20035;-79
2023/07/12 07:05:05;;;;;;;4.38;1.70;;;18.40;99.90;;;-144.05;71.62;56850.97;5054485;28;20061;-80
2023/07/12 07:07:31;;;;;;;2.65;1.70;;;18.50;99.90;;;-144.05;71.23;56861.56;5054302;28;20040;-79
2023/07/12 07:09:56;;;;;;;2.92;1.85;;;18.60;99.90;;;-144.05;70.51;56857.34;5054584;28;20032;-77
2023/07/12 07:12:23;;;;;;;2.40;1.67;;;18.70;99.90;;;-144.05;68.35;56859.47;5035544;28;20025;-80
2023/07/12 07:14:48;;;;;;;4.15;2.10;;;19.30;99.90;;;-144.05;65.75;56853.09;5053965;28;20032;-79
2023/07/12 07:17:14;;;;;;;5.20;2.20;;;19.80;99.90;;;-144.05;65.56;56861.56;5053847;28;20044;-79
2023/07/12 07:19:40;;;;;;;3.70;1.92;;;20.20;99.90;;;-144.05;62.72;56878.56;5054164;28;20021;-78
2023/07/12 07:22:06;;;;;;;4.22;1.75;;;20.50;99.90;;;-144.05;61.56;56884.94;5054814;28;20031;-77
2023/07/12 07:24:32;;;;;;;3.28;2.00;;;20.90;99.90;;;-144.05;59.33;56891.31;5057955;28;20025;-80
2023/07/12 07:26:58;;;;;;;3.28;1.65;;;21.40;99.90;;;-144.05;57.54;56897.69;5058381;28;20550;-77
2023/07/12 07:29:24;;;;;;;3.67;1.60;;;21.70;99.90;;;-144.05;57.54;56882.81;5042346;28;20029;-80
2023/07/12 07:31:50;;;;;;;4.57;1.52;;;21.60;99.90;;;-144.05;58.01;56844.59;5061371;28;20033;-78
2023/07/12 07:34:15;;;;;;;7.32;1.88;;;21.30;99.90;;;-144.05;57.75;56893.44;5059222;28;20559;-80
2023/07/12 07:36:42;;;;;;;3.60;1.85;;;21.10;99.90;;;-144.05;58.39;56914.69;5059741;28;20115;-79
2023/07/12 07:39:08;;;;;;;5.50;2.05;;;21.00;99.90;;;-144.05;58.73;56897.69;5062087;28;20068;-79
2023/07/12 07:41:34;;;;;;;4.43;1.92;;;20.80;99.90;;;-144.05;58.68;56889.19;5061632;28;20025;-80
2023/07/12 07:44:00;;;;;;;4.95;2.00;;;20.70;99.90;;;-144.05;57.02;56910.44;5060807;28;20025;-78
2023/07/12 07:46:26;;;;;;;6.63;1.77;;;20.70;99.90;;;-144.05;56.69;56891.31;5060331;28;20075;-78
2023/07/12 07:48:52;;;;;;;4.32;1.75;;;20.90;99.90;;;-144.05;55.67;56901.94;5059824;28;20059;-79
2023/07/12 07:51:18;;;;;;;6.30;1.90;;;20.80;99.90;;;-144.05;57.06;56891.31;5060549;28;20269;-78
2023/07/12 07:53:45;;;;;;;6.30;2.70;;;20.60;99.90;;;-144.05;58.17;56893.44;5062142;28;20040;-80
2023/07/12 07:56:11;;;;;;;6.53;2.45;;;20.30;99.90;;;-144.05;58.89;56901.94;5062248;28;20248;-79
2023/07/12 07:58:37;;;;;;;4.82;2.50;;;20.20;99.90;;;-144.05;59.13;56874.31;5061867;28;20404;-78
2023/07/12 08:01:04;;;;;;;9.43;2.60;;;20.10;99.90;;;-144.05;58.96;56872.19;5061350;28;20103;-79
2023/07/12 08:03:34;;;;;;;4.57;2.35;;;20.00;99.90;;;-144.05;58.01;56874.31;5059954;28;20464;-80
2023/07/12 08:06:05;;;;;;;5.15;2.63;;;19.90;99.90;;;-144.05;58.52;56884.94;5058796;28;20079;-80
2023/07/12 08:08:34;;;;;;;6.32;2.80;;;19.80;99.90;;;-144.05;58.89;56874.31;5057517;28;20060;-78
2023/07/12 08:11:04;;;;;;;6.18;2.30;;;19.80;99.90;;;-144.05;59.37;56874.31;5040798;28;20028;-79
2023/07/12 08:13:30;;;;;;;7.32;2.90;;;19.80;99.90;;;-144.05;58.70;56918.94;5058810;28;20033;-76
2023/07/12 08:15:56;;;;;;;5.43;2.25;;;19.80;99.90;;;-144.05;58.69;56901.94;5058844;28;20093;-79
2023/07/12 08:18:23;;;;;;;4.10;2.05;;;19.90;99.90;;;-144.05;59.74;56870.06;5056848;28;20124;-80
2023/07/12 08:20:57;;;;;;;3.47;1.73;;;19.90;99.90;;;-144.05;58.28;56893.44;5058874;28;20029;-78
2023/07/12 08:23:23;;;;;;;5.63;1.70;;;20.10;99.90;;;-144.05;56.47;56876.44;5058747;28;20025;-79
2023/07/12 08:25:52;;;;;;;4.00;1.40;;;20.50;99.90;;;-144.05;56.48;56884.94;5060708;28;20166;-79
2023/07/12 08:28:19;;;;;;;5.30;1.85;;;20.60;99.90;;;-144.05;55.84;56904.06;5060663;28;20054;-79
2023/07/12 08:30:45;;;;;;;3.13;1.20;;;20.60;99.90;;;-144.05;54.19;56910.44;5059521;28;20028;-81
2023/07/12 08:33:12;;;;;;;2.58;1.13;;;20.30;99.90;;;-144.05;54.69;56884.94;5058360;28;20070;-78
2023/07/12 08:35:37;;;;;;;4.57;1.27;;;20.40;99.90;;;-144.05;53.86;56884.94;5058695;28;20033;-79
2023/07/12 08:38:03;;;;;;;5.15;1.50;;;20.70;99.90;;;-144.05;54.68;56889.19;5057891;28;20064;-80
2023/07/12 08:40:29;;;;;;;4.85;1.58;;;20.60;99.90;;;-144.05;54.01;56882.81;5059123;28;20095;-79
2023/07/12 08:42:55;;;;;;;7.68;1.83;;;20.40;99.90;;;-144.05;54.96;56921.06;5059737;28;20028;-78
2023/07/12 08:45:31;;;;;;;3.00;1.20;;;20.50;99.90;;;-144.05;54.44;56897.69;5063164;28;20025;-80
2023/07/12 08:48:02;;;;;;;;;;;20.40;99.90;;;-144.05;53.67;56893.44;5058791;28;20025;-82
2023/07/12 08:50:39;;;;;;;4.90;1.80;;;20.90;99.90;;;-144.05;51.80;56906.19;5057531;28;19931;-80
2023/07/12 08:53:18;;;;;;;7.63;1.60;;;21.50;99.90;;;-144.05;50.48;56895.56;5057806;28;20035;-80
2023/07/12 08:55:45;;;;;;;4.15;1.38;;;21.70;99.90;;;-144.05;48.70;56897.69;5059380;28;20029;-80
2023/07/12 08:58:45;;;;;;;6.05;1.80;;;22.20;99.90;;;-144.05;49.59;56931.66;5058537;28;20033;-80
2023/07/12 09:01:39;;;;;;;4.15;1.35;;;22.00;99.90;;;-144.05;50.56;56935.91;5057912;28;20029;-81
2023/07/12 09:04:34;;;;;;;4.80;1.60;;;21.90;99.90;;;-144.05;50.60;56914.69;5058274;28;20025;-80
2023/07/12 09:07:04;;;;;;;4.85;1.35;;;21.50;99.90;;;-144.05;51.08;56882.81;5046417;28;20047;-80
2023/07/12 09:09:39;;;;;;;5.75;1.80;;;21.40;99.90;;;-144.05;51.37;56908.31;5059676;28;20032;-79
2023/07/12 09:12:22;;;;;;;7.25;1.33;;;21.30;99.90;;;-144.05;51.91;56923.19;5059362;28;20112;-79
2023/07/12 09:14:57;;;;;;;6.20;1.42;;;21.20;99.90;;;-144.05;51.48;56925.28;5060597;28;20504;-81
2023/07/12 09:17:30;;;;;;;4.57;1.50;;;21.20;99.90;;;-144.05;51.82;56910.44;5057317;28;20097;-79
2023/07/12 09:19:57;;;;;;;4.00;1.60;;;21.20;99.90;;;-144.05;52.23;56910.44;5040235;28;20124;-79
2023/07/12 09:22:24;;;;;;;4.72;1.50;;;21.20;99.90;;;-144.05;53.58;56906.19;5057501;28;20050;-76
2023/07/12 09:24:56;;;;;;;5.07;1.73;;;21.10;99.90;;;-144.05;52.17;56921.06;5059067;28;20021;-81
2023/07/12 09:27:27;;;;;;;5.22;1.77;;;21.10;99.90;;;-144.05;51.99;56895.56;5058477;28;20428;-79
2023/07/12 09:30:05;;;;;;;3.42;1.85;;;21.40;99.90;;;-144.05;51.79;56904.06;5057122;28;20462;-80
2023/07/12 09:32:36;;;;;;;5.15;1.92;;;21.90;99.90;;;-144.05;49.74;56927.41;5056352;28;20098;-81
2023/07/12 09:35:31;;;;;;;6.80;1.50;;;22.50;99.90;;;-144.05;49.23;56931.66;5058098;28;20025;-81
2023/07/12 09:38:08;;;;;;;5.53;1.70;;;22.50;99.90;;;-144.05;50.67;56916.81;5038221;28;20033;-84
2023/07/12 09:40:49;;;;;;;6.45;2.05;;;22.00;99.90;;;-144.05;51.12;56878.56;5056342;28;20597;-81
2023/07/12 09:43:23;;;;;;;3.40;1.67;;;22.00;99.90;;;-144.05;49.36;56942.28;5054227;28;20025;-80
2023/07/12 09:46:31;;;;;;;4.30;2.00;;;23.00;99.90;;;-144.05;46.64;56940.16;5056449;28;20112;-79
2023/07/12 09:49:12;;;;;;;8.00;1.95;;;23.10;99.90;;;-144.05;47.37;56950.78;5056281;28;20373;-80
2023/07/12 09:51:45;;;;;;;3.92;1.58;;;23.20;99.90;;;-144.05;44.65;56942.28;5055300;28;20044;-82
2023/07/12 09:54:58;;;;;;;4.20;1.50;;;23.80;99.90;;;-144.05;43.83;56965.66;5056573;28;20483;-80
2023/07/12 09:57:56;;;;;;;3.95;1.58;;;24.20;99.90;;;-144.05;41.39;56995.38;5026664;28;20122;-81
2023/07/12 10:00:39;;;;;;;4.65;1.60;;;24.20;99.90;;;-144.05;42.09;56972.03;5055029;28;20017;-80
2023/07/12 10:03:27;;;;;;;5.20;1.63;;;24.30;99.90;;;-144.05;41.76;56984.78;5056476;28;20432;-81
2023/07/12 10:06:11;;;;;;;5.53;1.52;;;24.30;99.90;;;-144.05;41.74;56978.41;5055454;28;20108;-81
2023/07/12 10:09:44;;;;;;;3.05;1.23;;;24.60;99.90;;;-144.05;40.87;56986.91;5037515;28;20032;-81
2023/07/12 10:12:51;;;;;;;5.82;1.50;;;25.00;99.90;;;-144.05;39.00;56982.66;4992914;28;20034;-80
2023/07/12 10:15:17;;;;;;;5.40;1.48;;;25.30;99.90;;;-144.05;39.65;56978.41;4993352;28;20030;-81